sensor_id;sensor_type;location;lat;lon;timestamp;P1;durP1;ratioP1;P2;durP2;ratioP2
72379;SDS011;60354;47.798;12.472;2023-02-27T00:00:13;5.10;;;2.80;;
72379;SDS011;60354;47.798;12.472;2023-02-27T00:02:41;4.70;;;2.58;;
72379;SDS011;60354;47.798;12.472;2023-02-27T00:05:08;4.80;;;2.60;;
72379;SDS011;60354;47.798;12.472;2023-02-27T00:07:34;3.35;;;2.25;;
72379;SDS011;60354;47.798;12.472;2023-02-27T00:10:00;3.85;;;2.65;;
72379;SDS011;60354;47.798;12.472;2023-02-27T00:12:28;4.78;;;2.55;;
72379;SDS011;60354;47.798;12.472;2023-02-27T00:14:55;4.18;;;2.60;;
72379;SDS011;60354;47.798;12.472;2023-02-27T00:17:20;4.78;;;2.63;;
72379;SDS011;60354;47.798;12.472;2023-02-27T00:19:46;4.18;;;2.38;;
72379;SDS011;60354;47.798;12.472;2023-02-27T00:22:11;4.60;;;2.47;;
72379;SDS011;60354;47.798;12.472;2023-02-27T00:24:37;5.00;;;2.63;;
72379;SDS011;60354;47.798;12.472;2023-02-27T00:27:02;3.83;;;2.38;;
72379;SDS011;60354;47.798;12.472;2023-02-27T00:29:28;4.43;;;2.38;;
72379;SDS011;60354;47.798;12.472;2023-02-27T00:31:53;3.45;;;2.25;;
72379;SDS011;60354;47.798;12.472;2023-02-27T00:34:19;4.47;;;2.50;;
72379;SDS011;60354;47.798;12.472;2023-02-27T00:36:44;6.43;;;2.75;;
72379;SDS011;60354;47.798;12.472;2023-02-27T00:39:09;4.72;;;2.67;;
72379;SDS011;60354;47.798;12.472;2023-02-27T00:41:35;4.38;;;2.47;;
72379;SDS011;60354;47.798;12.472;2023-02-27T00:44:00;3.83;;;2.55;;
72379;SDS011;60354;47.798;12.472;2023-02-27T00:46:26;4.93;;;2.42;;
72379;SDS011;60354;47.798;12.472;2023-02-27T00:48:51;3.60;;;2.63;;
72379;SDS011;60354;47.798;12.472;2023-02-27T00:51:17;4.25;;;2.60;;
72379;SDS011;60354;47.798;12.472;2023-02-27T00:53:44;4.72;;;2.47;;
72379;SDS011;60354;47.798;12.472;2023-02-27T00:56:10;4.72;;;2.40;;
72379;SDS011;60354;47.798;12.472;2023-02-27T00:58:36;5.40;;;2.85;;
72379;SDS011;60354;47.798;12.472;2023-02-27T01:01:01;4.22;;;2.80;;
72379;SDS011;60354;47.798;12.472;2023-02-27T01:03:27;4.43;;;2.47;;
72379;SDS011;60354;47.798;12.472;2023-02-27T01:05:52;5.63;;;2.63;;
72379;SDS011;60354;47.798;12.472;2023-02-27T01:08:18;3.72;;;2.50;;
72379;SDS011;60354;47.798;12.472;2023-02-27T01:10:44;3.80;;;2.78;;
72379;SDS011;60354;47.798;12.472;2023-02-27T01:13:10;3.70;;;2.38;;
72379;SDS011;60354;47.798;12.472;2023-02-27T01:15:35;4.80;;;2.60;;
72379;SDS011;60354;47.798;12.472;2023-02-27T01:18:01;4.10;;;2.80;;
72379;SDS011;60354;47.798;12.472;2023-02-27T01:20:26;4.80;;;2.70;;
72379;SDS011;60354;47.798;12.472;2023-02-27T01:22:52;4.90;;;2.97;;
72379;SDS011;60354;47.798;12.472;2023-02-27T01:25:17;3.92;;;2.40;;
72379;SDS011;60354;47.798;12.472;2023-02-27T01:27:43;5.68;;;2.70;;
72379;SDS011;60354;47.798;12.472;2023-02-27T01:30:09;4.25;;;2.60;;
72379;SDS011;60354;47.798;12.472;2023-02-27T01:32:36;4.72;;;2.80;;
72379;SDS011;60354;47.798;12.472;2023-02-27T01:35:02;4.70;;;2.65;;
72379;SDS011;60354;47.798;12.472;2023-02-27T01:37:28;4.57;;;2.90;;
72379;SDS011;60354;47.798;12.472;2023-02-27T01:39:53;4.32;;;2.72;;
72379;SDS011;60354;47.798;12.472;2023-02-27T01:42:21;4.55;;;2.67;;
72379;SDS011;60354;47.798;12.472;2023-02-27T01:47:40;4.75;;;2.60;;
72379;SDS011;60354;47.798;12.472;2023-02-27T01:50:08;5.18;;;3.10;;
72379;SDS011;60354;47.798;12.472;2023-02-27T01:52:35;4.68;;;3.00;;
72379;SDS011;60354;47.798;12.472;2023-02-27T01:55:03;15.38;;;8.18;;
72379;SDS011;60354;47.798;12.472;2023-02-27T01:57:32;5.13;;;3.15;;
72379;SDS011;60354;47.798;12.472;2023-02-27T01:59:58;5.57;;;2.83;;
72379;SDS011;60354;47.798;12.472;2023-02-27T02:02:25;5.25;;;3.55;;
72379;SDS011;60354;47.798;12.472;2023-02-27T02:04:54;4.60;;;2.85;;
72379;SDS011;60354;47.798;12.472;2023-02-27T02:07:21;5.03;;;3.10;;
72379;SDS011;60354;47.798;12.472;2023-02-27T02:09:49;6.88;;;3.05;;
72379;SDS011;60354;47.798;12.472;2023-02-27T02:12:18;6.53;;;2.90;;
72379;SDS011;60354;47.798;12.472;2023-02-27T02:14:48;6.38;;;2.97;;
72379;SDS011;60354;47.798;12.472;2023-02-27T02:17:20;4.78;;;2.83;;
72379;SDS011;60354;47.798;12.472;2023-02-27T02:31:38;4.40;;;2.70;;
72379;SDS011;60354;47.798;12.472;2023-02-27T02:50:11;5.75;;;3.05;;
72379;SDS011;60354;47.798;12.472;2023-02-27T03:00:34;5.32;;;3.30;;
72379;SDS011;60354;47.798;12.472;2023-02-27T03:03:17;5.38;;;3.15;;
72379;SDS011;60354;47.798;12.472;2023-02-27T03:06:05;7.03;;;3.85;;
72379;SDS011;60354;47.798;12.472;2023-02-27T03:08:38;5.97;;;4.03;;
72379;SDS011;60354;47.798;12.472;2023-02-27T03:11:08;5.70;;;3.92;;
72379;SDS011;60354;47.798;12.472;2023-02-27T03:13:51;7.60;;;4.50;;
72379;SDS011;60354;47.798;12.472;2023-02-27T03:16:27;6.82;;;4.00;;
72379;SDS011;60354;47.798;12.472;2023-02-27T03:24:24;6.57;;;4.05;;
72379;SDS011;60354;47.798;12.472;2023-02-27T03:26:54;7.07;;;4.00;;
72379;SDS011;60354;47.798;12.472;2023-02-27T03:32:10;7.28;;;4.18;;
72379;SDS011;60354;47.798;12.472;2023-02-27T03:34:47;6.57;;;3.85;;
72379;SDS011;60354;47.798;12.472;2023-02-27T03:39:57;7.82;;;4.47;;
72379;SDS011;60354;47.798;12.472;2023-02-27T03:47:56;7.43;;;4.32;;
72379;SDS011;60354;47.798;12.472;2023-02-27T03:50:23;8.45;;;5.22;;
72379;SDS011;60354;47.798;12.472;2023-02-27T03:52:49;7.80;;;4.72;;
72379;SDS011;60354;47.798;12.472;2023-02-27T03:55:16;8.15;;;4.72;;
72379;SDS011;60354;47.798;12.472;2023-02-27T03:57:45;7.55;;;4.32;;
72379;SDS011;60354;47.798;12.472;2023-02-27T04:00:13;8.10;;;4.55;;
72379;SDS011;60354;47.798;12.472;2023-02-27T04:02:43;7.68;;;4.18;;
72379;SDS011;60354;47.798;12.472;2023-02-27T04:05:12;7.45;;;4.22;;
72379;SDS011;60354;47.798;12.472;2023-02-27T04:07:55;8.15;;;4.60;;
72379;SDS011;60354;47.798;12.472;2023-02-27T04:16:08;5.90;;;3.70;;
72379;SDS011;60354;47.798;12.472;2023-02-27T04:21:59;7.43;;;3.95;;
72379;SDS011;60354;47.798;12.472;2023-02-27T04:29:51;5.68;;;3.63;;
72379;SDS011;60354;47.798;12.472;2023-02-27T04:35:30;6.65;;;4.15;;
72379;SDS011;60354;47.798;12.472;2023-02-27T04:38:02;6.75;;;4.03;;
72379;SDS011;60354;47.798;12.472;2023-02-27T04:40:37;6.30;;;3.85;;
72379;SDS011;60354;47.798;12.472;2023-02-27T04:43:07;6.00;;;3.65;;
72379;SDS011;60354;47.798;12.472;2023-02-27T04:45:36;6.00;;;3.97;;
72379;SDS011;60354;47.798;12.472;2023-02-27T04:48:06;6.35;;;3.70;;
72379;SDS011;60354;47.798;12.472;2023-02-27T04:50:40;6.90;;;4.20;;
72379;SDS011;60354;47.798;12.472;2023-02-27T04:53:12;6.28;;;3.90;;
72379;SDS011;60354;47.798;12.472;2023-02-27T04:55:51;6.10;;;3.70;;
72379;SDS011;60354;47.798;12.472;2023-02-27T04:58:44;8.82;;;3.88;;
72379;SDS011;60354;47.798;12.472;2023-02-27T05:01:28;8.18;;;4.03;;
72379;SDS011;60354;47.798;12.472;2023-02-27T05:06:29;5.63;;;3.50;;
72379;SDS011;60354;47.798;12.472;2023-02-27T05:09:34;9.32;;;4.00;;
72379;SDS011;60354;47.798;12.472;2023-02-27T05:15:06;7.78;;;3.80;;
72379;SDS011;60354;47.798;12.472;2023-02-27T05:17:48;5.43;;;3.30;;
72379;SDS011;60354;47.798;12.472;2023-02-27T05:20:23;7.88;;;3.60;;
72379;SDS011;60354;47.798;12.472;2023-02-27T05:28:40;7.85;;;4.07;;
72379;SDS011;60354;47.798;12.472;2023-02-27T05:31:36;7.03;;;3.65;;
72379;SDS011;60354;47.798;12.472;2023-02-27T05:34:29;6.35;;;3.60;;
72379;SDS011;60354;47.798;12.472;2023-02-27T05:37:02;7.22;;;3.97;;
72379;SDS011;60354;47.798;12.472;2023-02-27T05:39:32;6.70;;;3.17;;
72379;SDS011;60354;47.798;12.472;2023-02-27T05:42:05;6.68;;;3.85;;
72379;SDS011;60354;47.798;12.472;2023-02-27T05:44:43;7.70;;;4.30;;
72379;SDS011;60354;47.798;12.472;2023-02-27T05:47:16;7.72;;;4.53;;
72379;SDS011;60354;47.798;12.472;2023-02-27T05:50:04;7.00;;;3.85;;
72379;SDS011;60354;47.798;12.472;2023-02-27T05:52:37;9.25;;;4.93;;
72379;SDS011;60354;47.798;12.472;2023-02-27T05:55:10;7.65;;;4.88;;
72379;SDS011;60354;47.798;12.472;2023-02-27T05:57:43;9.35;;;4.40;;
72379;SDS011;60354;47.798;12.472;2023-02-27T06:00:17;9.15;;;4.20;;
72379;SDS011;60354;47.798;12.472;2023-02-27T06:02:47;7.82;;;4.55;;
72379;SDS011;60354;47.798;12.472;2023-02-27T06:05:13;8.82;;;4.97;;
72379;SDS011;60354;47.798;12.472;2023-02-27T06:07:39;7.65;;;4.97;;
72379;SDS011;60354;47.798;12.472;2023-02-27T06:10:05;8.93;;;4.80;;
72379;SDS011;60354;47.798;12.472;2023-02-27T06:12:31;11.57;;;5.28;;
72379;SDS011;60354;47.798;12.472;2023-02-27T06:14:57;10.27;;;4.93;;
72379;SDS011;60354;47.798;12.472;2023-02-27T06:17:22;13.25;;;5.57;;
72379;SDS011;60354;47.798;12.472;2023-02-27T06:19:48;7.68;;;4.50;;
72379;SDS011;60354;47.798;12.472;2023-02-27T06:22:13;9.35;;;5.15;;
72379;SDS011;60354;47.798;12.472;2023-02-27T06:24:38;13.40;;;5.57;;
72379;SDS011;60354;47.798;12.472;2023-02-27T06:27:04;7.78;;;4.50;;
72379;SDS011;60354;47.798;12.472;2023-02-27T06:29:29;12.63;;;6.07;;
72379;SDS011;60354;47.798;12.472;2023-02-27T06:31:55;13.77;;;7.18;;
72379;SDS011;60354;47.798;12.472;2023-02-27T06:34:21;11.98;;;6.00;;
72379;SDS011;60354;47.798;12.472;2023-02-27T06:36:46;11.35;;;5.18;;
72379;SDS011;60354;47.798;12.472;2023-02-27T06:39:12;9.88;;;5.70;;
72379;SDS011;60354;47.798;12.472;2023-02-27T06:41:38;8.68;;;5.57;;
72379;SDS011;60354;47.798;12.472;2023-02-27T06:44:04;10.07;;;5.30;;
72379;SDS011;60354;47.798;12.472;2023-02-27T06:46:29;8.30;;;4.90;;
72379;SDS011;60354;47.798;12.472;2023-02-27T06:48:55;8.00;;;4.63;;
72379;SDS011;60354;47.798;12.472;2023-02-27T06:51:20;9.88;;;5.65;;
72379;SDS011;60354;47.798;12.472;2023-02-27T06:53:46;9.55;;;5.30;;
72379;SDS011;60354;47.798;12.472;2023-02-27T06:56:11;8.88;;;5.32;;
72379;SDS011;60354;47.798;12.472;2023-02-27T06:58:37;9.98;;;5.05;;
72379;SDS011;60354;47.798;12.472;2023-02-27T07:01:02;10.75;;;4.95;;
72379;SDS011;60354;47.798;12.472;2023-02-27T07:03:28;7.93;;;4.65;;
72379;SDS011;60354;47.798;12.472;2023-02-27T07:05:53;8.45;;;5.63;;
72379;SDS011;60354;47.798;12.472;2023-02-27T07:08:21;9.15;;;4.90;;
72379;SDS011;60354;47.798;12.472;2023-02-27T07:10:46;7.90;;;5.18;;
72379;SDS011;60354;47.798;12.472;2023-02-27T07:13:13;9.30;;;5.10;;
72379;SDS011;60354;47.798;12.472;2023-02-27T07:15:39;8.23;;;4.68;;
72379;SDS011;60354;47.798;12.472;2023-02-27T07:18:04;8.02;;;5.07;;
72379;SDS011;60354;47.798;12.472;2023-02-27T07:20:30;9.50;;;5.30;;
72379;SDS011;60354;47.798;12.472;2023-02-27T07:22:56;8.00;;;4.65;;
72379;SDS011;60354;47.798;12.472;2023-02-27T07:25:21;8.73;;;4.22;;
72379;SDS011;60354;47.798;12.472;2023-02-27T07:27:47;9.25;;;4.85;;
72379;SDS011;60354;47.798;12.472;2023-02-27T07:30:15;8.88;;;4.90;;
72379;SDS011;60354;47.798;12.472;2023-02-27T07:32:41;9.98;;;4.88;;
72379;SDS011;60354;47.798;12.472;2023-02-27T07:35:07;6.70;;;4.63;;
72379;SDS011;60354;47.798;12.472;2023-02-27T07:37:33;8.27;;;4.68;;
72379;SDS011;60354;47.798;12.472;2023-02-27T07:39:58;7.15;;;4.47;;
72379;SDS011;60354;47.798;12.472;2023-02-27T07:42:24;8.52;;;4.25;;
72379;SDS011;60354;47.798;12.472;2023-02-27T07:44:49;10.00;;;4.40;;
72379;SDS011;60354;47.798;12.472;2023-02-27T07:47:14;9.70;;;4.90;;
72379;SDS011;60354;47.798;12.472;2023-02-27T07:49:41;11.93;;;4.38;;
72379;SDS011;60354;47.798;12.472;2023-02-27T07:52:07;8.68;;;4.40;;
72379;SDS011;60354;47.798;12.472;2023-02-27T07:54:33;6.90;;;4.47;;
72379;SDS011;60354;47.798;12.472;2023-02-27T07:57:01;6.90;;;4.07;;
72379;SDS011;60354;47.798;12.472;2023-02-27T07:59:26;8.15;;;4.18;;
72379;SDS011;60354;47.798;12.472;2023-02-27T08:01:52;8.13;;;4.50;;
72379;SDS011;60354;47.798;12.472;2023-02-27T08:04:17;7.40;;;4.28;;
72379;SDS011;60354;47.798;12.472;2023-02-27T08:06:43;7.28;;;4.22;;
72379;SDS011;60354;47.798;12.472;2023-02-27T08:09:08;6.35;;;4.18;;
72379;SDS011;60354;47.798;12.472;2023-02-27T08:11:34;7.43;;;4.18;;
72379;SDS011;60354;47.798;12.472;2023-02-27T08:14:00;8.10;;;4.20;;
72379;SDS011;60354;47.798;12.472;2023-02-27T08:16:25;12.63;;;4.15;;
72379;SDS011;60354;47.798;12.472;2023-02-27T08:18:51;8.95;;;4.55;;
72379;SDS011;60354;47.798;12.472;2023-02-27T08:21:16;7.30;;;4.05;;
72379;SDS011;60354;47.798;12.472;2023-02-27T08:23:42;6.88;;;3.92;;
72379;SDS011;60354;47.798;12.472;2023-02-27T08:26:07;9.02;;;4.03;;
72379;SDS011;60354;47.798;12.472;2023-02-27T08:28:33;6.07;;;3.80;;
72379;SDS011;60354;47.798;12.472;2023-02-27T08:30:58;7.35;;;3.97;;
72379;SDS011;60354;47.798;12.472;2023-02-27T08:33:24;7.75;;;4.70;;
72379;SDS011;60354;47.798;12.472;2023-02-27T08:35:49;6.50;;;3.97;;
72379;SDS011;60354;47.798;12.472;2023-02-27T08:38:15;7.45;;;3.90;;
72379;SDS011;60354;47.798;12.472;2023-02-27T08:40:40;9.70;;;4.30;;
72379;SDS011;60354;47.798;12.472;2023-02-27T08:43:06;7.13;;;4.20;;
72379;SDS011;60354;47.798;12.472;2023-02-27T08:45:31;6.47;;;4.32;;
72379;SDS011;60354;47.798;12.472;2023-02-27T08:47:57;7.18;;;4.07;;
72379;SDS011;60354;47.798;12.472;2023-02-27T08:50:22;6.75;;;4.10;;
72379;SDS011;60354;47.798;12.472;2023-02-27T08:52:48;6.45;;;4.10;;
72379;SDS011;60354;47.798;12.472;2023-02-27T08:55:13;11.15;;;4.00;;
72379;SDS011;60354;47.798;12.472;2023-02-27T08:57:39;11.35;;;4.57;;
72379;SDS011;60354;47.798;12.472;2023-02-27T09:00:05;6.97;;;3.60;;
72379;SDS011;60354;47.798;12.472;2023-02-27T09:02:34;6.85;;;3.63;;
72379;SDS011;60354;47.798;12.472;2023-02-27T09:04:59;6.55;;;3.70;;
72379;SDS011;60354;47.798;12.472;2023-02-27T09:07:25;5.65;;;3.55;;
72379;SDS011;60354;47.798;12.472;2023-02-27T09:09:50;6.90;;;3.40;;
72379;SDS011;60354;47.798;12.472;2023-02-27T09:12:16;8.10;;;3.60;;
72379;SDS011;60354;47.798;12.472;2023-02-27T09:14:41;6.85;;;3.70;;
72379;SDS011;60354;47.798;12.472;2023-02-27T09:17:07;6.80;;;3.50;;
72379;SDS011;60354;47.798;12.472;2023-02-27T09:19:32;6.65;;;3.42;;
72379;SDS011;60354;47.798;12.472;2023-02-27T09:21:58;4.88;;;3.47;;
72379;SDS011;60354;47.798;12.472;2023-02-27T09:24:23;8.40;;;3.92;;
72379;SDS011;60354;47.798;12.472;2023-02-27T09:26:49;8.13;;;3.38;;
72379;SDS011;60354;47.798;12.472;2023-02-27T09:29:14;6.32;;;3.40;;
72379;SDS011;60354;47.798;12.472;2023-02-27T09:31:40;5.35;;;3.40;;
72379;SDS011;60354;47.798;12.472;2023-02-27T09:34:06;5.55;;;3.40;;
72379;SDS011;60354;47.798;12.472;2023-02-27T09:36:31;4.47;;;3.15;;
72379;SDS011;60354;47.798;12.472;2023-02-27T09:38:57;8.20;;;3.70;;
72379;SDS011;60354;47.798;12.472;2023-02-27T09:41:31;5.65;;;3.63;;
72379;SDS011;60354;47.798;12.472;2023-02-27T09:44:20;4.70;;;3.10;;
72379;SDS011;60354;47.798;12.472;2023-02-27T09:46:52;9.23;;;3.40;;
72379;SDS011;60354;47.798;12.472;2023-02-27T09:49:19;5.80;;;3.38;;
72379;SDS011;60354;47.798;12.472;2023-02-27T09:51:46;7.70;;;3.63;;
72379;SDS011;60354;47.798;12.472;2023-02-27T09:54:16;6.32;;;3.72;;
72379;SDS011;60354;47.798;12.472;2023-02-27T09:56:45;15.52;;;7.75;;
72379;SDS011;60354;47.798;12.472;2023-02-27T10:17:51;10.05;;;5.05;;
72379;SDS011;60354;47.798;12.472;2023-02-27T10:20:22;9.15;;;5.25;;
72379;SDS011;60354;47.798;12.472;2023-02-27T10:23:00;8.13;;;5.47;;
72379;SDS011;60354;47.798;12.472;2023-02-27T10:25:37;8.35;;;5.30;;
72379;SDS011;60354;47.798;12.472;2023-02-27T10:28:14;9.40;;;5.18;;
72379;SDS011;60354;47.798;12.472;2023-02-27T10:30:52;8.60;;;4.80;;
72379;SDS011;60354;47.798;12.472;2023-02-27T10:35:48;9.50;;;4.75;;
72379;SDS011;60354;47.798;12.472;2023-02-27T10:40:58;10.38;;;4.93;;
72379;SDS011;60354;47.798;12.472;2023-02-27T10:43:25;7.90;;;4.63;;
72379;SDS011;60354;47.798;12.472;2023-02-27T10:45:51;9.20;;;4.28;;
72379;SDS011;60354;47.798;12.472;2023-02-27T10:48:18;9.35;;;5.15;;
72379;SDS011;60354;47.798;12.472;2023-02-27T10:50:48;11.60;;;5.30;;
72379;SDS011;60354;47.798;12.472;2023-02-27T10:53:23;10.07;;;5.55;;
72379;SDS011;60354;47.798;12.472;2023-02-27T10:56:00;11.23;;;4.78;;
72379;SDS011;60354;47.798;12.472;2023-02-27T10:58:33;9.02;;;4.60;;
72379;SDS011;60354;47.798;12.472;2023-02-27T11:01:00;11.15;;;4.70;;
72379;SDS011;60354;47.798;12.472;2023-02-27T11:03:40;9.40;;;4.03;;
72379;SDS011;60354;47.798;12.472;2023-02-27T11:06:11;7.80;;;3.90;;
72379;SDS011;60354;47.798;12.472;2023-02-27T11:09:07;7.07;;;3.63;;
72379;SDS011;60354;47.798;12.472;2023-02-27T11:11:49;7.25;;;3.75;;
72379;SDS011;60354;47.798;12.472;2023-02-27T11:16:51;9.63;;;4.25;;
72379;SDS011;60354;47.798;12.472;2023-02-27T11:24:31;24.58;;;11.43;;
72379;SDS011;60354;47.798;12.472;2023-02-27T11:27:01;7.55;;;4.47;;
72379;SDS011;60354;47.798;12.472;2023-02-27T11:29:29;7.38;;;3.90;;
72379;SDS011;60354;47.798;12.472;2023-02-27T11:34:28;8.30;;;4.43;;
72379;SDS011;60354;47.798;12.472;2023-02-27T11:36:55;11.10;;;5.72;;
72379;SDS011;60354;47.798;12.472;2023-02-27T11:39:28;6.97;;;3.88;;
72379;SDS011;60354;47.798;12.472;2023-02-27T11:41:55;7.63;;;3.60;;
72379;SDS011;60354;47.798;12.472;2023-02-27T11:44:24;5.75;;;3.45;;
72379;SDS011;60354;47.798;12.472;2023-02-27T11:47:06;7.57;;;3.70;;
72379;SDS011;60354;47.798;12.472;2023-02-27T11:49:37;7.50;;;4.28;;
72379;SDS011;60354;47.798;12.472;2023-02-27T11:52:12;7.20;;;3.60;;
72379;SDS011;60354;47.798;12.472;2023-02-27T11:54:55;5.75;;;3.60;;
72379;SDS011;60354;47.798;12.472;2023-02-27T11:57:26;6.15;;;3.40;;
72379;SDS011;60354;47.798;12.472;2023-02-27T11:59:57;10.55;;;3.53;;
72379;SDS011;60354;47.798;12.472;2023-02-27T12:02:45;8.18;;;3.72;;
72379;SDS011;60354;47.798;12.472;2023-02-27T12:10:27;6.50;;;3.53;;
72379;SDS011;60354;47.798;12.472;2023-02-27T12:12:57;7.85;;;4.35;;
72379;SDS011;60354;47.798;12.472;2023-02-27T12:15:32;7.93;;;3.92;;
72379;SDS011;60354;47.798;12.472;2023-02-27T12:21:09;6.88;;;4.32;;
72379;SDS011;60354;47.798;12.472;2023-02-27T12:24:21;7.65;;;4.60;;
72379;SDS011;60354;47.798;12.472;2023-02-27T12:26:40;8.73;;;4.30;;
72379;SDS011;60354;47.798;12.472;2023-02-27T12:29:28;7.53;;;4.22;;
72379;SDS011;60354;47.798;12.472;2023-02-27T12:32:44;10.07;;;5.15;;
72379;SDS011;60354;47.798;12.472;2023-02-27T12:37:11;7.63;;;4.80;;
72379;SDS011;60354;47.798;12.472;2023-02-27T12:39:41;7.18;;;4.20;;
72379;SDS011;60354;47.798;12.472;2023-02-27T12:49:46;10.75;;;5.45;;
72379;SDS011;60354;47.798;12.472;2023-02-27T12:52:52;10.23;;;4.60;;
72379;SDS011;60354;47.798;12.472;2023-02-27T12:55:33;6.60;;;4.25;;
72379;SDS011;60354;47.798;12.472;2023-02-27T13:00:47;11.15;;;4.90;;
72379;SDS011;60354;47.798;12.472;2023-02-27T13:03:19;8.00;;;3.80;;
72379;SDS011;60354;47.798;12.472;2023-02-27T13:05:54;6.70;;;3.85;;
72379;SDS011;60354;47.798;12.472;2023-02-27T13:16:04;7.40;;;4.25;;
72379;SDS011;60354;47.798;12.472;2023-02-27T13:21:59;6.35;;;3.75;;
72379;SDS011;60354;47.798;12.472;2023-02-27T13:24:26;6.00;;;3.80;;
72379;SDS011;60354;47.798;12.472;2023-02-27T13:29:43;11.60;;;6.72;;
72379;SDS011;60354;47.798;12.472;2023-02-27T13:35:00;10.32;;;5.18;;
72379;SDS011;60354;47.798;12.472;2023-02-27T13:45:51;21.33;;;10.27;;
72379;SDS011;60354;47.798;12.472;2023-02-27T13:48:39;20.42;;;10.25;;
72379;SDS011;60354;47.798;12.472;2023-02-27T13:51:04;18.50;;;8.98;;
72379;SDS011;60354;47.798;12.472;2023-02-27T13:54:05;11.27;;;6.00;;
72379;SDS011;60354;47.798;12.472;2023-02-27T13:56:38;22.05;;;9.80;;
72379;SDS011;60354;47.798;12.472;2023-02-27T14:04:36;29.45;;;12.60;;
72379;SDS011;60354;47.798;12.472;2023-02-27T14:07:12;21.45;;;9.77;;
72379;SDS011;60354;47.798;12.472;2023-02-27T14:09:43;10.80;;;6.13;;
72379;SDS011;60354;47.798;12.472;2023-02-27T14:14:57;8.70;;;4.75;;
72379;SDS011;60354;47.798;12.472;2023-02-27T14:34:03;7.55;;;4.40;;
72379;SDS011;60354;47.798;12.472;2023-02-27T14:36:34;7.88;;;4.70;;
72379;SDS011;60354;47.798;12.472;2023-02-27T14:39:06;6.97;;;4.07;;
72379;SDS011;60354;47.798;12.472;2023-02-27T14:44:23;7.80;;;4.70;;
72379;SDS011;60354;47.798;12.472;2023-02-27T14:46:51;7.13;;;4.50;;
72379;SDS011;60354;47.798;12.472;2023-02-27T14:51:47;8.80;;;4.65;;
72379;SDS011;60354;47.798;12.472;2023-02-27T14:54:24;7.05;;;4.22;;
72379;SDS011;60354;47.798;12.472;2023-02-27T15:01:59;11.95;;;6.50;;
72379;SDS011;60354;47.798;12.472;2023-02-27T15:04:28;13.52;;;5.85;;
72379;SDS011;60354;47.798;12.472;2023-02-27T15:06:55;9.65;;;5.45;;
72379;SDS011;60354;47.798;12.472;2023-02-27T15:09:33;11.95;;;5.30;;
72379;SDS011;60354;47.798;12.472;2023-02-27T15:12:07;7.82;;;5.05;;
72379;SDS011;60354;47.798;12.472;2023-02-27T15:14:34;11.65;;;7.07;;
72379;SDS011;60354;47.798;12.472;2023-02-27T15:17:03;15.45;;;7.35;;
72379;SDS011;60354;47.798;12.472;2023-02-27T15:19:44;8.95;;;5.40;;
72379;SDS011;60354;47.798;12.472;2023-02-27T15:22:56;12.30;;;6.07;;
72379;SDS011;60354;47.798;12.472;2023-02-27T15:25:03;10.23;;;5.80;;
72379;SDS011;60354;47.798;12.472;2023-02-27T15:27:31;14.70;;;7.30;;
72379;SDS011;60354;47.798;12.472;2023-02-27T15:30:01;12.88;;;6.43;;
72379;SDS011;60354;47.798;12.472;2023-02-27T15:32:35;10.38;;;5.22;;
72379;SDS011;60354;47.798;12.472;2023-02-27T15:35:05;15.73;;;7.95;;
72379;SDS011;60354;47.798;12.472;2023-02-27T15:37:39;14.18;;;6.82;;
72379;SDS011;60354;47.798;12.472;2023-02-27T15:40:10;8.35;;;5.20;;
72379;SDS011;60354;47.798;12.472;2023-02-27T15:42:44;13.82;;;8.00;;
72379;SDS011;60354;47.798;12.472;2023-02-27T15:45:10;11.40;;;5.88;;
72379;SDS011;60354;47.798;12.472;2023-02-27T15:47:43;9.18;;;4.78;;
72379;SDS011;60354;47.798;12.472;2023-02-27T15:50:11;17.33;;;11.13;;
72379;SDS011;60354;47.798;12.472;2023-02-27T15:52:50;12.52;;;6.25;;
72379;SDS011;60354;47.798;12.472;2023-02-27T15:55:23;9.68;;;5.20;;
72379;SDS011;60354;47.798;12.472;2023-02-27T15:57:51;9.50;;;5.00;;
72379;SDS011;60354;47.798;12.472;2023-02-27T16:00:17;8.38;;;5.03;;
72379;SDS011;60354;47.798;12.472;2023-02-27T16:02:45;8.43;;;4.55;;
72379;SDS011;60354;47.798;12.472;2023-02-27T16:05:19;8.52;;;4.32;;
72379;SDS011;60354;47.798;12.472;2023-02-27T16:07:47;9.27;;;4.03;;
72379;SDS011;60354;47.798;12.472;2023-02-27T16:10:18;9.30;;;4.55;;
72379;SDS011;60354;47.798;12.472;2023-02-27T16:12:48;7.88;;;4.82;;
72379;SDS011;60354;47.798;12.472;2023-02-27T16:17:54;9.27;;;5.57;;
72379;SDS011;60354;47.798;12.472;2023-02-27T16:23:06;8.68;;;5.05;;
72379;SDS011;60354;47.798;12.472;2023-02-27T16:28:29;7.70;;;5.05;;
72379;SDS011;60354;47.798;12.472;2023-02-27T16:31:11;9.68;;;4.60;;
72379;SDS011;60354;47.798;12.472;2023-02-27T16:33:50;9.88;;;4.90;;
72379;SDS011;60354;47.798;12.472;2023-02-27T16:36:21;9.43;;;4.80;;
72379;SDS011;60354;47.798;12.472;2023-02-27T16:38:48;9.02;;;4.38;;
72379;SDS011;60354;47.798;12.472;2023-02-27T16:41:15;8.20;;;4.65;;
72379;SDS011;60354;47.798;12.472;2023-02-27T16:43:43;8.32;;;4.25;;
72379;SDS011;60354;47.798;12.472;2023-02-27T16:46:10;7.35;;;4.15;;
72379;SDS011;60354;47.798;12.472;2023-02-27T16:48:40;9.07;;;4.32;;
72379;SDS011;60354;47.798;12.472;2023-02-27T16:51:09;10.02;;;4.70;;
72379;SDS011;60354;47.798;12.472;2023-02-27T16:53:40;7.47;;;4.05;;
72379;SDS011;60354;47.798;12.472;2023-02-27T16:56:07;7.15;;;4.05;;
72379;SDS011;60354;47.798;12.472;2023-02-27T16:58:34;6.70;;;4.13;;
72379;SDS011;60354;47.798;12.472;2023-02-27T17:01:00;7.78;;;3.95;;
72379;SDS011;60354;47.798;12.472;2023-02-27T17:03:25;7.32;;;4.72;;
72379;SDS011;60354;47.798;12.472;2023-02-27T17:05:52;7.00;;;4.47;;
72379;SDS011;60354;47.798;12.472;2023-02-27T17:08:18;8.90;;;4.18;;
72379;SDS011;60354;47.798;12.472;2023-02-27T17:10:46;6.97;;;4.35;;
72379;SDS011;60354;47.798;12.472;2023-02-27T17:13:11;8.38;;;4.15;;
72379;SDS011;60354;47.798;12.472;2023-02-27T17:15:38;9.32;;;4.82;;
72379;SDS011;60354;47.798;12.472;2023-02-27T17:18:03;12.52;;;7.03;;
72379;SDS011;60354;47.798;12.472;2023-02-27T17:20:29;8.70;;;4.60;;
72379;SDS011;60354;47.798;12.472;2023-02-27T17:22:54;11.07;;;4.55;;
72379;SDS011;60354;47.798;12.472;2023-02-27T17:25:20;7.65;;;4.15;;
72379;SDS011;60354;47.798;12.472;2023-02-27T17:27:46;7.45;;;3.58;;
72379;SDS011;60354;47.798;12.472;2023-02-27T17:30:12;7.85;;;3.92;;
72379;SDS011;60354;47.798;12.472;2023-02-27T17:32:39;10.00;;;3.55;;
72379;SDS011;60354;47.798;12.472;2023-02-27T17:35:04;8.15;;;4.40;;
72379;SDS011;60354;47.798;12.472;2023-02-27T17:37:30;9.98;;;5.05;;
72379;SDS011;60354;47.798;12.472;2023-02-27T17:39:55;7.57;;;3.67;;
72379;SDS011;60354;47.798;12.472;2023-02-27T17:42:21;10.13;;;4.05;;
72379;SDS011;60354;47.798;12.472;2023-02-27T17:44:49;6.93;;;3.40;;
72379;SDS011;60354;47.798;12.472;2023-02-27T17:47:15;6.03;;;3.60;;
72379;SDS011;60354;47.798;12.472;2023-02-27T17:49:41;4.85;;;3.25;;
72379;SDS011;60354;47.798;12.472;2023-02-27T17:52:07;7.53;;;4.13;;
72379;SDS011;60354;47.798;12.472;2023-02-27T17:54:33;6.78;;;3.50;;
72379;SDS011;60354;47.798;12.472;2023-02-27T17:57:00;8.38;;;3.60;;
72379;SDS011;60354;47.798;12.472;2023-02-27T17:59:25;10.80;;;4.75;;
72379;SDS011;60354;47.798;12.472;2023-02-27T18:01:51;7.38;;;3.63;;
72379;SDS011;60354;47.798;12.472;2023-02-27T18:04:16;8.57;;;3.80;;
72379;SDS011;60354;47.798;12.472;2023-02-27T18:06:42;8.77;;;4.25;;
72379;SDS011;60354;47.798;12.472;2023-02-27T18:09:08;11.05;;;4.97;;
72379;SDS011;60354;47.798;12.472;2023-02-27T18:11:34;6.70;;;3.80;;